Time;durP1;ratioP1;P1;durP2;ratioP2;P2;SDS_P1;SDS_P2;PMS_P1;PMS_P2;Temp;Humidity;BMP_temperature;BMP_pressure;BME280_temperature;BME280_humidity;BME280_pressure;Samples;Min_cycle;Max_cycle;Signal;HPM_P1;HPM_P2
2023/01/05 00:02:09;;;;;;;2.27;1.50;;;10.90;99.90;;;;;;5039892;28;20448;-70
2023/01/05 00:04:55;;;;;;;2.10;1.20;;;10.90;99.90;;;;;;5055954;28;20430;-71
2023/01/05 00:07:42;;;;;;;4.80;1.63;;;10.90;99.90;;;;;;5061298;28;20436;-69
2023/01/05 00:22:45;;;;;;;4.43;1.33;;;11.00;99.90;;;;;;5049888;28;21011;-72
2023/01/05 00:25:33;;;;;;;2.40;1.10;;;11.00;99.90;;;;;;5044946;28;20471;-73
2023/01/05 00:28:19;;;;;;;1.60;1.20;;;11.00;99.90;;;;;;5043160;28;20655;-73
2023/01/05 00:31:06;;;;;;;1.93;1.37;;;11.00;99.90;;;;;;5042459;28;20491;-73
2023/01/05 00:33:52;;;;;;;2.97;1.37;;;11.00;99.90;;;;;;5042266;28;20440;-74
2023/01/05 00:36:39;;;;;;;2.23;1.37;;;11.00;99.90;;;;;;5044364;28;21027;-73
2023/01/05 00:39:24;;;;;;;1.60;1.20;;;11.00;99.90;;;;;;5048150;28;20446;-74
2023/01/05 00:42:10;;;;;;;2.10;1.40;;;11.00;99.90;;;;;;5049997;28;20455;-74
2023/01/05 00:44:55;;;;;;;2.73;1.70;;;11.00;99.90;;;;;;5045046;28;20456;-73
2023/01/05 00:47:43;;;;;;;1.90;1.47;;;11.00;99.90;;;;;;5047724;28;20451;-71
2023/01/05 00:50:28;;;;;;;5.10;1.40;;;11.00;99.90;;;;;;5050906;28;20537;-73
2023/01/05 00:53:14;;;;;;;3.93;1.60;;;11.00;99.90;;;;;;5059037;28;20454;-73
2023/01/05 00:56:00;;;;;;;2.20;1.70;;;10.90;99.90;;;;;;5042710;22;20494;-73
2023/01/05 00:58:45;;;;;;;2.37;2.07;;;10.90;99.90;;;;;;4968016;28;20474;-73
2023/01/05 01:01:31;;;;;;;2.97;1.63;;;10.90;99.90;;;;;;4971966;28;20462;-73
2023/01/05 01:04:18;;;;;;;2.27;1.90;;;10.90;99.90;;;;;;4986357;28;20461;-73
2023/01/05 01:07:05;;;;;;;2.10;1.70;;;10.80;99.90;;;;;;4991199;28;21053;-73
2023/01/05 01:09:50;;;;;;;3.10;2.17;;;10.80;99.90;;;;;;4972771;28;20439;-73
2023/01/05 01:12:36;;;;;;;2.90;2.00;;;10.90;99.90;;;;;;5008712;28;20459;-73
2023/01/05 01:15:22;;;;;;;1.87;1.47;;;10.80;99.90;;;;;;4967908;28;20863;-73
2023/01/05 01:18:07;;;;;;;2.10;1.60;;;10.80;99.90;;;;;;4968716;28;20521;-73
2023/01/05 01:20:56;;;;;;;2.13;1.93;;;10.80;99.90;;;;;;4980114;28;20442;-73
2023/01/05 01:23:42;;;;;;;2.40;1.97;;;10.80;99.90;;;;;;4977692;28;20453;-73
2023/01/05 01:26:27;;;;;;;2.53;1.40;;;10.90;99.90;;;;;;4963397;28;20479;-73
2023/01/05 01:29:13;;;;;;;4.40;1.57;;;10.90;99.90;;;;;;4966854;28;20526;-73
2023/01/05 01:31:58;;;;;;;2.27;1.60;;;10.90;99.90;;;;;;4967794;28;20807;-73
2023/01/05 01:34:45;;;;;;;3.30;1.60;;;10.90;99.90;;;;;;4974106;28;20630;-73
2023/01/05 01:37:32;;;;;;;5.37;1.13;;;10.90;99.90;;;;;;4969659;28;20475;-73
2023/01/05 01:40:18;;;;;;;2.10;1.27;;;10.90;99.90;;;;;;5003105;28;20519;-73
2023/01/05 01:43:05;;;;;;;4.70;1.33;;;11.00;99.90;;;;;;4978256;28;20451;-73
2023/01/05 01:45:51;;;;;;;2.80;1.53;;;11.00;99.90;;;;;;4974642;28;20541;-73
2023/01/05 01:48:39;;;;;;;1.67;1.03;;;11.00;99.90;;;;;;4975835;28;20455;-73
2023/01/05 01:51:30;;;;;;;1.50;0.90;;;11.10;99.90;;;;;;4974853;28;20975;-73
2023/01/05 01:54:18;;;;;;;1.97;1.20;;;11.10;99.90;;;;;;4978628;28;20954;-73
2023/01/05 01:57:05;;;;;;;3.77;1.20;;;11.10;99.90;;;;;;4975980;28;20478;-73
2023/01/05 01:59:51;;;;;;;1.70;1.00;;;11.20;99.90;;;;;;4981585;28;20589;-73
2023/01/05 02:02:36;;;;;;;3.50;1.00;;;11.30;99.90;;;;;;5001391;28;20451;-73
2023/01/05 02:05:27;;;;;;;1.67;1.13;;;11.30;99.90;;;;;;5003842;28;20463;-73
2023/01/05 02:08:14;;;;;;;2.10;0.87;;;11.30;99.90;;;;;;4968467;28;20449;-73
2023/01/05 02:11:20;;;;;;;1.97;1.10;;;11.30;99.90;;;;;;4993526;28;20951;-73
2023/01/05 02:14:17;;;;;;;1.90;1.00;;;11.30;99.90;;;;;;4976937;28;20483;-73
2023/01/05 02:17:13;;;;;;;1.87;0.97;;;11.30;99.90;;;;;;4984473;28;20467;-73
2023/01/05 02:20:37;;;;;;;1.90;1.20;;;11.30;99.90;;;;;;5012029;28;20450;-73
2023/01/05 02:23:45;;;;;;;1.50;0.80;;;11.30;99.90;;;;;;4987017;28;20437;-73
2023/01/05 02:27:06;;;;;;;1.47;0.70;;;11.30;99.90;;;;;;4976064;28;20536;-73
2023/01/05 02:30:34;;;;;;;1.83;1.00;;;11.40;99.90;;;;;;4983156;28;20478;-73
2023/01/05 02:33:31;;;;;;;2.83;1.07;;;11.30;99.90;;;;;;4988328;28;20450;-73
2023/01/05 02:36:24;;;;;;;1.40;0.97;;;11.30;99.90;;;;;;4974343;28;20989;-73
2023/01/05 02:39:15;;;;;;;3.47;1.00;;;11.30;99.90;;;;;;4986197;28;20843;-73
2023/01/05 02:42:04;;;;;;;1.70;0.80;;;11.30;99.90;;;;;;4975830;28;20487;-73
2023/01/05 02:44:49;;;;;;;5.47;1.17;;;11.40;99.90;;;;;;4983742;28;20479;-73
2023/01/05 02:47:40;;;;;;;1.57;0.90;;;11.30;99.90;;;;;;4978025;28;21003;-73
2023/01/05 02:50:31;;;;;;;2.57;1.10;;;11.30;99.90;;;;;;4981408;28;20480;-74
2023/01/05 02:53:21;;;;;;;1.73;0.97;;;11.30;99.90;;;;;;4985426;28;22238;-73
2023/01/05 02:56:13;;;;;;;1.40;1.00;;;11.40;99.90;;;;;;4976137;28;20479;-73
2023/01/05 02:59:02;;;;;;;2.37;1.17;;;11.30;99.90;;;;;;4971222;28;20473;-73
2023/01/05 03:01:52;;;;;;;2.10;1.40;;;11.30;99.90;;;;;;4984142;28;20441;-73
2023/01/05 03:04:42;;;;;;;1.70;1.10;;;11.30;99.90;;;;;;4980012;28;20496;-73
2023/01/05 03:07:34;;;;;;;1.40;1.13;;;11.30;99.90;;;;;;4981200;28;20471;-73
2023/01/05 03:13:42;;;;;;;3.00;1.50;;;11.20;99.90;;;;;;4962657;28;20812;-73
2023/01/05 03:16:33;;;;;;;2.20;1.43;;;11.20;99.90;;;;;;4971328;28;21008;-73
2023/01/05 03:38:09;;;;;;;2.47;2.27;;;11.20;99.90;;;;;;4981361;28;20451;-73
2023/01/05 03:41:00;;;;;;;3.60;2.33;;;11.20;99.90;;;;;;5007160;28;20614;-73
2023/01/05 03:43:47;;;;;;;2.43;2.23;;;11.20;99.90;;;;;;4982594;28;20619;-73
2023/01/05 03:46:33;;;;;;;2.60;1.80;;;11.20;99.90;;;;;;4977065;28;20478;-73
2023/01/05 03:49:19;;;;;;;1.67;1.30;;;11.20;99.90;;;;;;4998607;28;20536;-73
2023/01/05 03:52:05;;;;;;;2.43;1.30;;;11.30;99.90;;;;;;4983681;28;20963;-73
2023/01/05 03:54:50;;;;;;;1.40;1.10;;;11.30;99.90;;;;;;4968867;28;20471;-73
2023/01/05 03:57:37;;;;;;;1.60;1.13;;;11.30;99.90;;;;;;4977594;28;20474;-73
2023/01/05 04:00:23;;;;;;;1.60;1.10;;;11.40;99.90;;;;;;4986229;28;20529;-73
2023/01/05 04:03:09;;;;;;;1.80;1.57;;;11.40;99.90;;;;;;4965768;28;20533;-73
2023/01/05 04:05:55;;;;;;;1.83;1.63;;;11.40;99.90;;;;;;4998293;28;20446;-73
2023/01/05 04:08:40;;;;;;;4.70;2.20;;;11.30;99.90;;;;;;4976422;28;20443;-73
2023/01/05 04:11:26;;;;;;;2.77;2.57;;;11.20;99.90;;;;;;4980960;28;20416;-73
2023/01/05 04:14:13;;;;;;;4.97;2.17;;;11.30;99.90;;;;;;4970385;28;20451;-74
2023/01/05 04:16:59;;;;;;;4.17;2.50;;;11.20;99.90;;;;;;4985364;28;20478;-74
2023/01/05 04:19:45;;;;;;;4.77;1.97;;;11.20;99.90;;;;;;4975686;28;20458;-73
2023/01/05 04:22:30;;;;;;;7.47;1.40;;;11.20;99.90;;;;;;4963422;28;20447;-73
2023/01/05 04:25:16;;;;;;;8.20;1.80;;;11.20;99.90;;;;;;4972520;28;20438;-73
2023/01/05 04:28:02;;;;;;;5.90;1.73;;;11.30;99.90;;;;;;4976680;28;20454;-73
2023/01/05 04:30:52;;;;;;;7.30;1.70;;;11.20;99.90;;;;;;4993808;28;20433;-73
2023/01/05 04:33:39;;;;;;;8.30;1.57;;;11.30;99.90;;;;;;4970503;28;20475;-72
2023/01/05 04:36:25;;;;;;;11.07;2.20;;;11.20;99.90;;;;;;4988299;28;20537;-72
2023/01/05 04:39:10;;;;;;;11.13;1.50;;;11.20;99.90;;;;;;4976207;28;20471;-71
2023/01/05 04:41:56;;;;;;;6.90;1.90;;;11.10;99.90;;;;;;4968963;28;20556;-73
2023/01/05 04:44:42;;;;;;;13.17;1.87;;;11.00;99.90;;;;;;4968283;28;20440;-72
2023/01/05 04:47:29;;;;;;;9.70;1.80;;;11.00;99.90;;;;;;4971593;28;20874;-73
2023/01/05 04:50:14;;;;;;;16.40;2.03;;;11.00;99.90;;;;;;4968641;28;20948;-73
2023/01/05 04:53:00;;;;;;;17.37;3.10;;;10.90;99.90;;;;;;4966503;28;20529;-72
2023/01/05 04:55:46;;;;;;;16.87;2.93;;;11.00;99.90;;;;;;4970203;28;20435;-73
2023/01/05 04:58:31;;;;;;;6.37;1.90;;;11.00;99.90;;;;;;4979557;28;21001;-73
2023/01/05 05:01:17;;;;;;;14.73;2.70;;;11.00;99.90;;;;;;4994128;28;20601;-73
2023/01/05 05:04:04;;;;;;;5.37;1.73;;;10.90;99.90;;;;;;4987058;28;20418;-73
2023/01/05 05:06:50;;;;;;;7.90;2.10;;;11.00;99.90;;;;;;5002098;28;20459;-74
2023/01/05 05:09:35;;;;;;;8.47;1.87;;;10.90;99.90;;;;;;4976543;28;20889;-73
2023/01/05 05:12:21;;;;;;;8.53;1.90;;;10.90;99.90;;;;;;4980100;28;20522;-73
2023/01/05 05:15:08;;;;;;;8.87;2.30;;;10.90;99.90;;;;;;4987113;28;20438;-73
2023/01/05 05:17:54;;;;;;;9.17;2.30;;;10.90;99.90;;;;;;4988311;28;20471;-73
2023/01/05 05:20:44;;;;;;;8.43;2.17;;;10.90;99.90;;;;;;4990844;28;20481;-73
2023/01/05 05:23:29;;;;;;;5.37;1.50;;;10.80;99.90;;;;;;4970391;28;20562;-73
2023/01/05 05:26:14;;;;;;;10.20;2.10;;;10.90;99.90;;;;;;4996916;28;20559;-73
2023/01/05 05:29:00;;;;;;;13.23;2.73;;;10.90;99.90;;;;;;4980969;28;20494;-73
2023/01/05 05:31:46;;;;;;;16.33;2.50;;;10.80;99.90;;;;;;4965201;28;20504;-73
2023/01/05 05:34:31;;;;;;;8.70;2.23;;;10.80;99.90;;;;;;4971145;28;20402;-73
2023/01/05 05:37:18;;;;;;;11.07;2.80;;;10.80;99.90;;;;;;4997695;28;20454;-73
2023/01/05 05:40:05;;;;;;;13.60;2.50;;;10.90;99.90;;;;;;4977403;28;20419;-73
2023/01/05 05:42:51;;;;;;;12.93;2.13;;;10.90;99.90;;;;;;4976267;28;20430;-73
2023/01/05 05:45:36;;;;;;;19.10;4.87;;;10.80;99.90;;;;;;4979196;28;20428;-73
2023/01/05 05:48:22;;;;;;;18.63;3.43;;;10.80;99.90;;;;;;4977294;28;20818;-73
2023/01/05 05:51:08;;;;;;;11.07;2.10;;;10.80;99.90;;;;;;4975346;28;20484;-73
2023/01/05 05:53:54;;;;;;;10.47;2.10;;;10.80;99.90;;;;;;4974256;28;20936;-73
2023/01/05 05:56:40;;;;;;;17.77;3.60;;;10.70;99.90;;;;;;4983376;28;20455;-73
2023/01/05 05:59:26;;;;;;;12.73;2.60;;;10.80;99.90;;;;;;4964702;28;20502;-73
2023/01/05 06:02:11;;;;;;;9.77;2.40;;;10.80;99.90;;;;;;4985952;28;20473;-73
2023/01/05 06:04:57;;;;;;;13.93;2.43;;;10.80;99.90;;;;;;4973933;28;20426;-73
2023/01/05 06:07:42;;;;;;;9.37;2.17;;;10.80;99.90;;;;;;4976554;28;20492;-73
2023/01/05 06:10:30;;;;;;;12.07;2.37;;;10.80;99.90;;;;;;4968138;28;20446;-73
2023/01/05 06:13:15;;;;;;;15.60;2.33;;;10.80;99.90;;;;;;4972920;28;20419;-73
2023/01/05 06:16:01;;;;;;;18.37;3.40;;;10.80;99.90;;;;;;4984519;28;20497;-74
2023/01/05 06:18:47;;;;;;;19.70;3.50;;;10.80;99.90;;;;;;4979276;28;20970;-73
2023/01/05 06:21:33;;;;;;;9.07;2.20;;;10.80;99.90;;;;;;4962689;28;20944;-73
2023/01/05 06:24:18;;;;;;;15.20;2.60;;;10.80;99.90;;;;;;4974652;28;20481;-73
2023/01/05 06:27:05;;;;;;;13.70;2.90;;;10.80;99.90;;;;;;4999475;28;21094;-73
2023/01/05 06:29:50;;;;;;;11.27;3.70;;;10.90;99.90;;;;;;4979011;28;20447;-73
2023/01/05 06:32:36;;;;;;;13.90;2.83;;;10.90;99.90;;;;;;4967309;28;20401;-73
2023/01/05 06:35:22;;;;;;;15.27;3.37;;;10.90;99.90;;;;;;4992712;28;20426;-73
2023/01/05 06:38:09;;;;;;;11.97;2.40;;;11.00;99.90;;;;;;4978820;28;20482;-73
2023/01/05 06:40:56;;;;;;;18.97;2.73;;;10.90;99.90;;;;;;4980843;28;20556;-73
2023/01/05 06:43:43;;;;;;;16.30;2.87;;;10.90;99.90;;;;;;4972457;28;20428;-73
2023/01/05 06:46:28;;;;;;;14.90;2.13;;;10.90;99.90;;;;;;4966203;28;20447;-73
2023/01/05 06:49:15;;;;;;;19.63;3.67;;;10.90;99.90;;;;;;4978100;28;20423;-73
2023/01/05 06:52:00;;;;;;;11.70;2.97;;;11.00;99.90;;;;;;4969747;28;20431;-72
2023/01/05 06:54:46;;;;;;;10.93;3.57;;;11.00;99.90;;;;;;4978656;28;20846;-73
2023/01/05 06:57:32;;;;;;;16.07;3.17;;;11.00;99.90;;;;;;5054256;22;21075;-76
2023/01/05 07:00:19;;;;;;;25.33;3.93;;;10.90;99.90;;;;;;5084468;28;20483;-76
2023/01/05 07:03:06;;;;;;;9.83;2.10;;;10.90;99.90;;;;;;5093839;28;20424;-76
2023/01/05 07:05:52;;;;;;;10.90;2.40;;;11.00;99.90;;;;;;5095173;28;20541;-76
2023/01/05 07:08:38;;;;;;;8.27;2.43;;;11.00;99.90;;;;;;5093798;28;20489;-76
2023/01/05 07:11:23;;;;;;;9.27;2.73;;;10.90;99.90;;;;;;5088121;28;20437;-76
2023/01/05 07:14:10;;;;;;;15.77;3.33;;;10.90;99.90;;;;;;5099200;28;21004;-76
2023/01/05 07:16:57;;;;;;;10.97;2.63;;;10.90;99.90;;;;;;5099422;28;20479;-75
2023/01/05 07:19:42;;;;;;;6.83;2.17;;;10.90;99.90;;;;;;5093541;28;20477;-76
2023/01/05 07:22:29;;;;;;;12.97;2.43;;;10.90;99.90;;;;;;5095479;28;20426;-76
2023/01/05 07:25:15;;;;;;;11.60;2.67;;;10.90;99.90;;;;;;5096693;28;20449;-76
2023/01/05 07:28:00;;;;;;;18.10;2.60;;;10.90;99.90;;;;;;5097571;28;20495;-76
2023/01/05 07:30:51;;;;;;;11.43;2.50;;;10.90;99.90;;;;;;5085935;28;20441;-76
2023/01/05 07:33:38;;;;;;;10.67;2.50;;;10.90;99.90;;;;;;5094550;28;20389;-75
2023/01/05 07:36:24;;;;;;;8.70;2.00;;;10.90;99.90;;;;;;5097742;28;20961;-76
2023/01/05 07:39:09;;;;;;;8.33;2.63;;;10.90;99.90;;;;;;5096222;28;20560;-77
2023/01/05 07:41:55;;;;;;;17.73;2.93;;;10.90;99.90;;;;;;5094881;28;20499;-76
2023/01/05 07:44:41;;;;;;;17.00;2.43;;;10.90;99.90;;;;;;5096459;28;20441;-75
2023/01/05 07:47:27;;;;;;;13.30;2.60;;;10.90;99.90;;;;;;5098589;28;20933;-77
2023/01/05 07:50:14;;;;;;;12.87;2.90;;;10.90;99.90;;;;;;5087535;28;20968;-76
2023/01/05 07:52:59;;;;;;;20.10;3.13;;;10.80;99.90;;;;;;5104872;28;20395;-76
2023/01/05 07:55:54;;;;;;;17.87;3.27;;;10.90;99.90;;;;;;5099757;28;20433;-76
2023/01/05 07:58:40;;;;;;;7.67;2.37;;;10.80;99.90;;;;;;5083676;28;20846;-76
2023/01/05 08:01:25;;;;;;;10.40;2.33;;;10.90;99.90;;;;;;5094465;28;20480;-76
2023/01/05 08:04:11;;;;;;;15.43;3.33;;;10.90;99.90;;;;;;5098098;28;20425;-76
2023/01/05 08:06:58;;;;;;;10.17;2.80;;;11.00;99.90;;;;;;5095778;28;20464;-76
2023/01/05 08:15:52;;;;;;;18.13;2.53;;;10.80;99.90;;;;;;5079086;28;20425;-76
2023/01/05 08:18:38;;;;;;;14.27;2.93;;;10.80;99.90;;;;;;5082254;28;20460;-74
2023/01/05 08:21:24;;;;;;;9.43;2.17;;;10.90;99.90;;;;;;5096884;28;20519;-76
2023/01/05 08:24:10;;;;;;;20.80;3.00;;;10.90;99.90;;;;;;5096744;28;20977;-75
2023/01/05 08:26:56;;;;;;;9.93;2.20;;;10.90;99.90;;;;;;5103700;28;20575;-76
2023/01/05 08:29:42;;;;;;;14.77;2.73;;;10.90;99.90;;;;;;5085694;28;20483;-76
2023/01/05 08:32:27;;;;;;;16.83;2.37;;;10.90;99.90;;;;;;5091098;28;20939;-74
2023/01/05 08:35:13;;;;;;;13.43;2.30;;;10.90;99.90;;;;;;5100432;28;20566;-76
2023/01/05 08:37:59;;;;;;;11.83;2.57;;;11.00;99.90;;;;;;5089263;28;20542;-74
2023/01/05 08:40:46;;;;;;;13.57;2.97;;;11.00;99.90;;;;;;5098380;28;20510;-76
2023/01/05 08:43:31;;;;;;;13.17;3.17;;;11.10;99.90;;;;;;5092769;28;20457;-76
2023/01/05 08:46:17;;;;;;;13.67;2.83;;;11.00;99.90;;;;;;5101548;28;20449;-76
2023/01/05 08:49:05;;;;;;;4.30;1.33;;;11.00;99.90;;;;;;5085779;28;20849;-76
2023/01/05 08:51:51;;;;;;;16.17;2.93;;;11.00;99.90;;;;;;5101805;28;20475;-76
2023/01/05 08:54:36;;;;;;;12.03;2.50;;;11.10;99.90;;;;;;5088319;28;20498;-76
2023/01/05 08:57:24;;;;;;;9.13;2.13;;;11.10;99.90;;;;;;5088726;28;20490;-76
2023/01/05 09:00:11;;;;;;;8.87;2.23;;;11.10;99.90;;;;;;5091098;28;20548;-76
2023/01/05 09:02:56;;;;;;;15.33;3.23;;;11.10;99.90;;;;;;5095482;28;20485;-76
2023/01/05 09:05:42;;;;;;;20.23;3.60;;;11.00;99.90;;;;;;5092198;28;21057;-76
2023/01/05 09:08:28;;;;;;;15.50;2.40;;;11.10;99.90;;;;;;5079074;28;20799;-77
2023/01/05 09:11:15;;;;;;;9.50;2.03;;;11.10;99.90;;;;;;5093487;28;20534;-76
2023/01/05 09:14:02;;;;;;;23.00;2.70;;;11.10;99.90;;;;;;5097563;28;20480;-74
2023/01/05 09:16:48;;;;;;;16.23;2.30;;;11.20;99.90;;;;;;5094919;28;20424;-76
2023/01/05 09:19:34;;;;;;;9.77;2.33;;;11.20;99.90;;;;;;5089719;28;20454;-76
2023/01/05 09:22:20;;;;;;;13.60;2.70;;;11.20;99.90;;;;;;5099538;28;20416;-76
2023/01/05 09:25:06;;;;;;;14.67;2.30;;;11.20;99.90;;;;;;5094807;28;21014;-76
2023/01/05 09:27:52;;;;;;;13.73;2.93;;;11.30;99.90;;;;;;5087596;28;20478;-76
2023/01/05 09:30:39;;;;;;;15.37;2.80;;;11.30;99.90;;;;;;5098028;28;20399;-75
2023/01/05 09:33:24;;;;;;;16.07;2.70;;;11.30;99.90;;;;;;5087174;28;20508;-76
2023/01/05 09:36:12;;;;;;;18.33;4.23;;;11.30;99.90;;;;;;5101021;28;20532;-76
2023/01/05 09:38:58;;;;;;;14.97;3.20;;;11.30;99.90;;;;;;5084602;28;20494;-75
2023/01/05 09:41:47;;;;;;;12.97;2.30;;;11.40;99.90;;;;;;5088234;28;20480;-76
2023/01/05 09:44:36;;;;;;;26.53;5.33;;;11.40;99.90;;;;;;5090878;28;20430;-76
2023/01/05 09:47:29;;;;;;;13.97;2.93;;;11.30;99.90;;;;;;5085953;28;20497;-76
2023/01/05 09:50:19;;;;;;;17.57;2.87;;;11.40;99.90;;;;;;5099882;28;20421;-76
2023/01/05 09:53:07;;;;;;;14.60;3.63;;;11.40;99.90;;;;;;5096014;28;20431;-76
2023/01/05 09:55:53;;;;;;;13.90;2.73;;;11.40;99.90;;;;;;5098058;28;20430;-76
2023/01/05 09:58:43;;;;;;;12.53;2.30;;;11.50;99.90;;;;;;5086775;28;20442;-76
2023/01/05 10:01:28;;;;;;;13.93;2.77;;;11.50;99.90;;;;;;5093351;28;20414;-75
2023/01/05 10:04:17;;;;;;;12.93;2.90;;;11.40;99.90;;;;;;5092252;28;20397;-76
2023/01/05 10:07:06;;;;;;;8.97;2.50;;;11.40;99.90;;;;;;5086395;28;20442;-77
2023/01/05 10:09:55;;;;;;;17.67;2.70;;;11.50;99.90;;;;;;5098700;28;20417;-76
2023/01/05 10:13:05;;;;;;;17.00;3.00;;;11.50;99.90;;;;;;5092719;28;20430;-75
2023/01/05 10:15:54;;;;;;;22.20;3.83;;;11.60;99.90;;;;;;5095456;28;20401;-76
2023/01/05 10:18:40;;;;;;;16.03;2.90;;;11.70;99.90;;;;;;5087392;28;20491;-76
2023/01/05 10:21:34;;;;;;;13.90;3.60;;;11.80;99.90;;;;;;5097969;28;20476;-76
2023/01/05 10:24:28;;;;;;;13.70;2.27;;;11.80;99.90;;;;;;5096258;28;20437;-76
2023/01/05 10:27:19;;;;;;;13.60;3.07;;;11.90;99.90;;;;;;5080059;28;20981;-76
2023/01/05 10:30:15;;;;;;;16.03;3.10;;;11.90;99.90;;;;;;5096025;28;20530;-76
2023/01/05 10:33:09;;;;;;;22.30;3.47;;;11.90;99.90;;;;;;5098437;28;20770;-77
2023/01/05 10:36:03;;;;;;;25.20;4.17;;;11.90;99.90;;;;;;5095877;28;20429;-76
2023/01/05 10:38:58;;;;;;;21.27;3.37;;;11.80;99.90;;;;;;5097752;28;20764;-76
2023/01/05 10:41:50;;;;;;;16.37;4.40;;;11.90;99.90;;;;;;5092991;28;21053;-75
2023/01/05 10:44:55;;;;;;;19.50;3.77;;;12.00;99.90;;;;;;5099215;28;20567;-75
2023/01/05 10:47:43;;;;;;;16.97;3.90;;;12.00;99.90;;;;;;5089665;28;20493;-76
2023/01/05 10:50:37;;;;;;;16.57;3.20;;;12.00;99.90;;;;;;5095837;28;20397;-76
2023/01/05 10:53:24;;;;;;;16.80;2.80;;;12.00;99.90;;;;;;5094250;28;20421;-76
2023/01/05 10:56:15;;;;;;;13.17;2.80;;;12.10;99.90;;;;;;5087888;28;20438;-76
2023/01/05 10:59:09;;;;;;;19.77;3.50;;;12.10;99.90;;;;;;5097551;28;20511;-76
2023/01/05 11:01:55;;;;;;;13.40;2.87;;;12.20;99.90;;;;;;5101178;28;20412;-76
2023/01/05 11:04:47;;;;;;;16.43;3.60;;;12.30;99.90;;;;;;5091684;28;20400;-76
2023/01/05 11:07:42;;;;;;;18.77;3.93;;;12.30;99.90;;;;;;5089310;28;20554;-76
2023/01/05 11:10:31;;;;;;;15.53;2.60;;;12.30;99.90;;;;;;5100981;28;20446;-76
2023/01/05 11:13:32;;;;;;;14.27;3.60;;;12.20;99.90;;;;;;5096835;28;20426;-76
2023/01/05 11:16:20;;;;;;;17.70;2.90;;;12.20;99.90;;;;;;5087504;28;20465;-76
2023/01/05 11:19:12;;;;;;;20.13;4.20;;;12.30;99.90;;;;;;5099492;28;20778;-76
2023/01/05 11:21:58;;;;;;;20.43;3.97;;;12.30;99.90;;;;;;5096794;28;20454;-76
2023/01/05 11:24:45;;;;;;;18.20;3.70;;;12.30;99.90;;;;;;5099222;28;20758;-76
2023/01/05 11:27:31;;;;;;;17.60;4.80;;;12.20;99.90;;;;;;5092884;28;20457;-75
2023/01/05 11:30:24;;;;;;;21.00;4.37;;;12.20;99.90;;;;;;5094037;28;20392;-75
2023/01/05 11:33:14;;;;;;;11.80;2.80;;;12.20;99.90;;;;;;5103139;28;20490;-75
2023/01/05 11:36:01;;;;;;;12.33;3.37;;;12.10;99.90;;;;;;5085357;28;20456;-76
2023/01/05 11:38:53;;;;;;;20.03;3.40;;;12.10;99.90;;;;;;5099904;28;20408;-76
2023/01/05 11:41:40;;;;;;;17.97;3.73;;;12.10;99.90;;;;;;5088640;28;20422;-76
2023/01/05 11:44:26;;;;;;;12.90;2.87;;;12.10;99.90;;;;;;5092806;28;20778;-76
2023/01/05 11:47:22;;;;;;;11.80;3.80;;;12.10;99.90;;;;;;5094624;28;20435;-75
2023/01/05 11:50:17;;;;;;;14.27;3.23;;;12.20;99.90;;;;;;5097955;28;20942;-76
2023/01/05 11:53:03;;;;;;;18.13;3.17;;;12.20;99.90;;;;;;5100722;28;20446;-76
2023/01/05 11:56:00;;;;;;;13.90;3.93;;;12.20;99.90;;;;;;5084637;28;20504;-76
2023/01/05 11:58:47;;;;;;;14.50;4.03;;;12.30;99.90;;;;;;5095619;28;20785;-76
2023/01/05 12:01:54;;;;;;;11.33;3.20;;;12.30;99.90;;;;;;5100312;28;20464;-76
2023/01/05 12:05:04;;;;;;;14.90;5.80;;;12.30;99.90;;;;;;5089749;28;20440;-76
2023/01/05 12:07:53;;;;;;;14.80;2.70;;;12.40;99.90;;;;;;5092263;28;20778;-76
2023/01/05 12:11:07;;;;;;;15.43;3.07;;;12.30;99.90;;;;;;5105376;28;20422;-76
2023/01/05 12:14:10;;;;;;;17.00;2.83;;;12.30;99.90;;;;;;5091759;28;20408;-76
2023/01/05 12:16:57;;;;;;;21.03;3.30;;;12.30;99.90;;;;;;5091201;28;20442;-75
2023/01/05 12:20:19;;;;;;;15.90;2.93;;;12.20;99.90;;;;;;5101909;28;20494;-76
2023/01/05 12:23:27;;;;;;;20.63;3.33;;;12.30;99.90;;;;;;5099278;28;20437;-76
2023/01/05 12:26:25;;;;;;;15.37;3.80;;;12.30;99.90;;;;;;5086994;28;20850;-75
2023/01/05 12:30:02;;;;;;;19.67;3.87;;;12.30;99.90;;;;;;5098970;28;20396;-76
2023/01/05 12:33:07;;;;;;;18.53;3.20;;;12.30;99.90;;;;;;5035718;28;20462;-76
2023/01/05 12:36:08;;;;;;;12.40;2.87;;;12.30;99.90;;;;;;5022859;28;20503;-76
2023/01/05 12:39:09;;;;;;;18.77;3.30;;;12.40;99.90;;;;;;5091128;28;20892;-76
2023/01/05 12:42:05;;;;;;;18.93;3.33;;;12.50;99.90;;;;;;5096866;28;20420;-76
2023/01/05 12:45:09;;;;;;;22.07;3.20;;;12.50;99.90;;;;;;5081989;28;20454;-76
2023/01/05 12:47:58;;;;;;;24.27;3.93;;;12.50;99.90;;;;;;5088908;28;20611;-76
2023/01/05 12:50:47;;;;;;;24.23;3.83;;;12.50;99.90;;;;;;5096994;28;20526;-74
2023/01/05 12:53:44;;;;;;;15.57;3.07;;;12.50;99.90;;;;;;5084911;28;20539;-76
2023/01/05 12:56:36;;;;;;;19.83;2.83;;;12.50;99.90;;;;;;5108955;22;20453;-72
2023/01/05 12:59:29;;;;;;;20.70;3.20;;;12.50;99.90;;;;;;5059196;28;20525;-74
2023/01/05 13:02:26;;;;;;;18.90;4.17;;;12.40;99.90;;;;;;5056636;28;20439;-74
2023/01/05 13:05:19;;;;;;;17.43;3.33;;;12.30;99.90;;;;;;5040923;28;20436;-74
2023/01/05 13:08:14;;;;;;;16.53;3.03;;;12.20;99.90;;;;;;5054860;28;20490;-74
2023/01/05 13:11:06;;;;;;;19.07;3.00;;;12.10;99.90;;;;;;5056299;28;20416;-74
2023/01/05 13:13:56;;;;;;;15.40;3.63;;;12.10;99.90;;;;;;5052284;28;20490;-74
2023/01/05 13:16:46;;;;;;;20.77;4.10;;;12.00;99.90;;;;;;5050050;28;20427;-74
2023/01/05 13:19:37;;;;;;;12.73;2.87;;;12.00;99.90;;;;;;5051599;28;20904;-74
2023/01/05 13:22:24;;;;;;;16.30;4.23;;;12.00;99.90;;;;;;5055799;28;20994;-74
2023/01/05 13:25:18;;;;;;;11.33;2.93;;;12.10;99.90;;;;;;5045054;28;21016;-73
2023/01/05 13:28:05;;;;;;;17.60;4.07;;;12.10;99.90;;;;;;5052401;28;21003;-74
2023/01/05 13:31:12;;;;;;;14.10;3.40;;;12.10;99.90;;;;;;5055780;28;20501;-74
2023/01/05 13:34:28;;;;;;;18.30;3.60;;;12.00;99.90;;;;;;5028121;28;20505;-74
2023/01/05 13:37:49;;;;;;;16.60;3.53;;;12.10;99.90;;;;;;5053169;28;20512;-74
2023/01/05 13:40:50;;;;;;;22.93;3.37;;;12.10;99.90;;;;;;5054781;28;20829;-73
2023/01/05 13:44:12;;;;;;;21.83;3.63;;;12.00;99.90;;;;;;5043335;28;20443;-74
2023/01/05 13:47:18;;;;;;;13.13;3.70;;;12.00;99.90;;;;;;5047467;28;20465;-74
2023/01/05 13:50:37;;;;;;;17.83;3.50;;;12.00;99.90;;;;;;5053871;28;20525;-74
2023/01/05 13:53:26;;;;;;;12.23;3.00;;;12.00;99.90;;;;;;5046668;28;20571;-74
2023/01/05 13:56:19;;;;;;;12.17;3.37;;;12.00;99.90;;;;;;5055598;28;20427;-73
2023/01/05 13:59:16;;;;;;;23.23;3.50;;;12.10;99.90;;;;;;5053434;28;20970;-73
2023/01/05 14:02:03;;;;;;;15.93;2.93;;;12.00;99.90;;;;;;5054396;28;20476;-74
2023/01/05 14:04:48;;;;;;;20.20;4.80;;;11.90;99.90;;;;;;5046634;28;20596;-74
2023/01/05 14:07:40;;;;;;;10.90;3.10;;;11.90;99.90;;;;;;5048027;28;20443;-74
2023/01/05 14:10:29;;;;;;;11.33;2.80;;;11.90;99.90;;;;;;5061486;28;20406;-74
2023/01/05 14:13:44;;;;;;;18.10;5.40;;;11.80;99.90;;;;;;5047319;28;21022;-74
2023/01/05 14:16:53;;;;;;;17.67;3.83;;;11.80;99.90;;;;;;5059366;28;20425;-74
2023/01/05 14:19:51;;;;;;;17.37;3.30;;;11.80;99.90;;;;;;5064013;28;20872;-74
2023/01/05 14:22:38;;;;;;;14.77;3.67;;;11.90;99.90;;;;;;5050890;28;20448;-74
2023/01/05 14:25:47;;;;;;;16.70;4.53;;;11.80;99.90;;;;;;5055554;28;20427;-74
2023/01/05 14:28:54;;;;;;;10.03;2.70;;;11.90;99.90;;;;;;5053810;28;20447;-74
2023/01/05 14:31:42;;;;;;;12.60;3.20;;;12.00;99.90;;;;;;5052504;28;20431;-74
2023/01/05 14:34:29;;;;;;;17.50;3.73;;;12.00;99.90;;;;;;5045697;28;20813;-74
2023/01/05 14:37:22;;;;;;;12.40;3.27;;;12.10;99.90;;;;;;5061688;28;20540;-74
2023/01/05 14:40:24;;;;;;;17.93;3.17;;;12.10;99.90;;;;;;5058807;28;20424;-74
2023/01/05 14:43:26;;;;;;;21.93;3.57;;;12.10;99.90;;;;;;5050454;28;20554;-74
2023/01/05 14:46:15;;;;;;;25.97;2.80;;;12.10;99.90;;;;;;5061825;28;20397;-74
2023/01/05 14:49:04;;;;;;;26.40;4.40;;;12.10;99.90;;;;;;5058666;28;20405;-74
2023/01/05 14:51:56;;;;;;;14.83;3.27;;;12.10;99.90;;;;;;5060743;28;20998;-74
2023/01/05 14:55:18;;;;;;;10.33;3.63;;;12.00;99.90;;;;;;5055263;28;20559;-74
2023/01/05 14:58:05;;;;;;;13.23;3.03;;;12.10;99.90;;;;;;5058469;28;20432;-74
2023/01/05 15:00:58;;;;;;;25.37;4.00;;;12.00;99.90;;;;;;5059091;28;20518;-74
2023/01/05 15:03:50;;;;;;;17.63;3.23;;;12.00;99.90;;;;;;5049103;28;20429;-74
2023/01/05 15:06:50;;;;;;;12.70;2.97;;;11.90;99.90;;;;;;5058251;28;20402;-74
2023/01/05 15:10:08;;;;;;;18.00;3.93;;;12.00;99.90;;;;;;5050353;28;20395;-74
2023/01/05 15:13:21;;;;;;;18.20;3.67;;;12.00;99.90;;;;;;5044140;28;20470;-74
2023/01/05 15:16:14;;;;;;;13.27;3.47;;;12.00;99.90;;;;;;5037934;28;20444;-74
2023/01/05 15:19:28;;;;;;;12.30;3.57;;;12.00;99.90;;;;;;5064317;28;20543;-74
2023/01/05 15:22:33;;;;;;;9.80;2.57;;;12.00;99.90;;;;;;5051220;28;20471;-74